createdAt,value
2023-05-15T00:02:26.746Z,100023.53
2023-05-15T00:04:54.685Z,100027.91
2023-05-15T00:07:22.573Z,100029.72
2023-05-15T00:09:50.314Z,100033.25
2023-05-15T00:12:18.715Z,100031.41
2023-05-15T00:14:46.450Z,100038.63
2023-05-15T00:17:14.395Z,100042.41
2023-05-15T00:19:43.729Z,100039.22
2023-05-15T00:22:11.427Z,100045.53
2023-05-15T00:24:39.095Z,100040.47
2023-05-15T00:27:07.279Z,100042.41
2023-05-15T00:29:35.030Z,100038.38
2023-05-15T00:32:02.700Z,100044.72
2023-05-15T00:34:30.457Z,100043.88
2023-05-15T00:37:00.405Z,100044.47
2023-05-15T00:39:28.182Z,100051.81
2023-05-15T00:41:56.939Z,100041.41
2023-05-15T00:44:26.306Z,100046.88
2023-05-15T00:46:55.586Z,100042.22
2023-05-15T00:49:24.656Z,100034.06
2023-05-15T00:51:53.024Z,100042.63
2023-05-15T00:54:22.080Z,100044.16
2023-05-15T00:56:51.920Z,100041.50
2023-05-15T00:59:20.649Z,100036.47
2023-05-15T01:01:48.388Z,100036.75
2023-05-15T01:04:16.215Z,100041.41
2023-05-15T01:06:44.353Z,100042.69
2023-05-15T01:09:13.801Z,100042.00
2023-05-15T01:11:43.821Z,100040.47
2023-05-15T01:14:11.529Z,100033.88
2023-05-15T01:16:39.332Z,100031.59
2023-05-15T01:19:07.179Z,100032.75
2023-05-15T01:21:55.786Z,100032.06
2023-05-15T01:24:44.579Z,100041.91
2023-05-15T01:27:27.281Z,100037.53
2023-05-15T01:30:04.103Z,100038.56
2023-05-15T01:32:41.364Z,100035.03
2023-05-15T01:35:14.520Z,100042.50
2023-05-15T01:37:46.100Z,100041.66
2023-05-15T01:40:17.338Z,100047.44
2023-05-15T01:42:55.051Z,100039.56
2023-05-15T01:45:25.686Z,100039.03
2023-05-15T01:47:56.907Z,100041.97
2023-05-15T01:50:27.043Z,100052.66
2023-05-15T01:52:59.484Z,100039.16
2023-05-15T01:55:30.456Z,100039.16
2023-05-15T01:58:02.350Z,100045.66
2023-05-15T02:00:30.449Z,100032.44
2023-05-15T02:02:58.930Z,100039.31
2023-05-15T02:05:28.147Z,100040.00
2023-05-15T02:07:56.391Z,100034.53
2023-05-15T02:10:24.765Z,100031.00
2023-05-15T02:12:53.853Z,100023.00
2023-05-15T02:15:24.509Z,100026.50
2023-05-15T02:17:52.474Z,100019.47
2023-05-15T02:20:20.227Z,100019.06
2023-05-15T02:22:48.051Z,100022.88
2023-05-15T02:25:16.036Z,100023.72
2023-05-15T02:27:49.541Z,100021.03
2023-05-15T02:30:36.107Z,100018.66
2023-05-15T02:33:13.901Z,100014.59
2023-05-15T02:35:50.205Z,100018.41
2023-05-15T02:38:21.634Z,100016.69
2023-05-15T02:40:49.653Z,100022.34
2023-05-15T02:43:19.758Z,100019.94
2023-05-15T02:45:49.754Z,100015.19
2023-05-15T02:48:18.689Z,100013.78
2023-05-15T02:50:46.624Z,100010.28
2023-05-15T02:53:14.603Z,100016.59
2023-05-15T02:55:42.475Z,100015.50
2023-05-15T02:58:11.020Z,100012.94
2023-05-15T03:00:38.734Z,100011.41
2023-05-15T03:03:07.881Z,100013.41
2023-05-15T03:05:35.594Z,100006.34
2023-05-15T03:08:03.348Z,100006.34
2023-05-15T03:10:31.088Z,100009.16
2023-05-15T03:12:59.239Z,100010.84
2023-05-15T03:15:27.371Z,100010.16
2023-05-15T03:17:55.885Z,100006.94
2023-05-15T03:20:25.084Z,100006.22
2023-05-15T03:22:53.000Z,100007.50
2023-05-15T03:25:21.263Z,100006.81
2023-05-15T03:27:49.231Z,100012.28
2023-05-15T03:30:17.146Z,100009.75
2023-05-15T03:32:45.059Z,100009.34
2023-05-15T03:35:13.109Z,100015.13
2023-05-15T03:37:42.292Z,100014.94
2023-05-15T03:40:10.697Z,100015.25
2023-05-15T03:42:38.462Z,100015.38
2023-05-15T03:45:07.235Z,100015.53
2023-05-15T03:47:34.962Z,100012.28
2023-05-15T03:50:02.772Z,100017.91
2023-05-15T03:52:30.600Z,100009.22
2023-05-15T03:54:59.768Z,100017.31
2023-05-15T03:57:27.594Z,100015.78
2023-05-15T03:59:55.419Z,100025.63
2023-05-15T04:02:23.188Z,100015.09
2023-05-15T04:04:51.650Z,100015.22
2023-05-15T04:07:19.426Z,100020.69
2023-05-15T04:09:47.180Z,100024.63
2023-05-15T04:12:16.237Z,100021.25
2023-05-15T04:14:43.920Z,100023.91
2023-05-15T04:17:11.645Z,100030.25
2023-05-15T04:19:41.007Z,100029.94
2023-05-15T04:22:08.821Z,100032.75
2023-05-15T04:24:36.513Z,100026.56
2023-05-15T04:27:04.520Z,100029.13
2023-05-15T04:29:33.890Z,100030.78
2023-05-15T04:32:02.400Z,100029.69
2023-05-15T04:34:30.393Z,100027.44
2023-05-15T04:36:58.554Z,100023.78
2023-05-15T04:39:26.287Z,100028.00
2023-05-15T04:41:54.029Z,100022.41
2023-05-15T04:44:21.681Z,100024.66
2023-05-15T04:46:50.805Z,100020.59
2023-05-15T04:49:18.546Z,100021.69
2023-05-15T04:51:46.330Z,100018.44
2023-05-15T04:54:14.136Z,100019.59
2023-05-15T04:56:41.814Z,100026.88
2023-05-15T04:59:10.847Z,100026.03
2023-05-15T05:01:38.654Z,100029.78
2023-05-15T05:04:08.181Z,100030.63
2023-05-15T05:06:36.201Z,100042.56
2023-05-15T05:09:04.650Z,100042.00
2023-05-15T05:11:32.451Z,100035.22
2023-05-15T05:14:00.120Z,100036.19
2023-05-15T05:16:27.975Z,100035.63
2023-05-15T05:18:55.930Z,100038.41
2023-05-15T05:21:24.983Z,100041.19
2023-05-15T05:23:52.684Z,100040.59
2023-05-15T05:26:21.002Z,100041.69
2023-05-15T05:28:48.737Z,100040.09
2023-05-15T05:31:16.531Z,100037.84
2023-05-15T05:33:44.322Z,100040.91
2023-05-15T05:36:12.621Z,100041.34
2023-05-15T05:38:41.717Z,100037.06
2023-05-15T05:41:09.510Z,100039.81
2023-05-15T05:43:37.225Z,100042.63
2023-05-15T05:46:05.249Z,100040.16
2023-05-15T05:48:32.908Z,100038.25
2023-05-15T05:51:00.725Z,100037.19
2023-05-15T05:53:28.514Z,100040.66
2023-05-15T05:55:57.784Z,100034.50
2023-05-15T05:58:26.431Z,100033.75
2023-05-15T06:00:54.571Z,100036.34
2023-05-15T06:03:23.018Z,100040.63
2023-05-15T06:05:51.019Z,100035.31
2023-05-15T06:08:19.691Z,100044.25
2023-05-15T06:10:47.616Z,100041.19
2023-05-15T06:13:19.356Z,100042.09
2023-05-15T06:15:47.548Z,100041.81
2023-05-15T06:18:16.586Z,100037.19
2023-05-15T06:20:44.380Z,100039.59
2023-05-15T06:23:12.143Z,100043.84
2023-05-15T06:25:40.168Z,100045.06
2023-05-15T06:28:08.121Z,100045.09
2023-05-15T06:30:37.258Z,100046.63
2023-05-15T06:33:05.289Z,100052.19
2023-05-15T06:35:33.093Z,100050.84
2023-05-15T06:38:00.902Z,100046.69
2023-05-15T06:40:28.705Z,100050.56
2023-05-15T06:42:56.560Z,100049.72
2023-05-15T06:45:24.604Z,100041.50
2023-05-15T06:47:54.441Z,100056.97
2023-05-15T06:50:22.349Z,100053.50
2023-05-15T06:52:50.614Z,100056.50
2023-05-15T06:55:18.535Z,100051.97
2023-05-15T06:57:46.296Z,100047.63
2023-05-15T07:00:15.527Z,100048.47
2023-05-15T07:02:43.878Z,100050.81
2023-05-15T07:05:13.479Z,100055.69
2023-05-15T07:07:41.397Z,100054.53
2023-05-15T07:10:10.369Z,100049.47
2023-05-15T07:12:38.141Z,100051.66
2023-05-15T07:15:06.822Z,100053.34
2023-05-15T07:17:35.300Z,100051.66
2023-05-15T07:20:06.071Z,100049.28
2023-05-15T07:22:44.636Z,100050.16
2023-05-15T07:25:20.021Z,100047.75
2023-05-15T07:27:47.798Z,100046.22
2023-05-15T07:30:16.678Z,100042.88
2023-05-15T07:32:44.640Z,100050.75
2023-05-15T07:35:12.775Z,100050.06
2023-05-15T07:37:42.020Z,100042.16
2023-05-15T07:40:10.555Z,100038.75
2023-05-15T07:42:39.695Z,100036.69
2023-05-15T07:45:08.722Z,100045.03
2023-05-15T07:47:36.734Z,100043.31
2023-05-15T07:50:04.997Z,100035.75
2023-05-15T07:52:32.806Z,100035.53
2023-05-15T07:55:01.941Z,100038.81
2023-05-15T07:57:29.912Z,100042.66
2023-05-15T07:59:57.833Z,100038.41
2023-05-15T08:02:25.659Z,100036.66
2023-05-15T08:04:53.522Z,100034.19
2023-05-15T08:07:21.312Z,100033.97
2023-05-15T08:09:49.157Z,100036.34
2023-05-15T08:12:21.835Z,100030.94
2023-05-15T08:14:50.819Z,100037.47
2023-05-15T08:17:21.082Z,100028.31
2023-05-15T08:19:49.171Z,100034.66
2023-05-15T08:22:17.321Z,100031.44
2023-05-15T08:24:45.832Z,100039.81
2023-05-15T08:27:13.616Z,100037.81
2023-05-15T08:29:42.688Z,100038.28
2023-05-15T08:32:11.259Z,100040.84
2023-05-15T08:34:39.225Z,100039.63
2023-05-15T08:37:07.604Z,100036.50
2023-05-15T08:39:35.402Z,100039.75
2023-05-15T08:42:09.096Z,100028.44
2023-05-15T08:44:37.596Z,100023.59
2023-05-15T08:47:07.971Z,100026.03
2023-05-15T08:49:46.033Z,100020.78
2023-05-15T08:52:13.918Z,100019.25
2023-05-15T08:54:42.388Z,100020.41
2023-05-15T08:57:10.807Z,100015.84
2023-05-15T08:59:39.142Z,100014.50
2023-05-15T09:02:08.696Z,100008.34
2023-05-15T09:04:36.503Z,100003.78
2023-05-15T09:07:04.954Z,100006.94
2023-05-15T09:09:35.314Z,100005.53
2023-05-15T09:12:04.547Z,100009.78
2023-05-15T09:14:32.577Z,100011.06
2023-05-15T09:17:00.607Z,100014.00
2023-05-15T09:19:29.972Z,100006.13
2023-05-15T09:22:17.807Z,100006.94
2023-05-15T09:24:48.091Z,99999.88
2023-05-15T09:27:16.001Z,100000.50
2023-05-15T09:29:44.366Z,100002.38
2023-05-15T09:32:14.079Z,99999.50
2023-05-15T09:34:44.702Z,99996.16
2023-05-15T09:37:28.643Z,100000.34
2023-05-15T09:39:56.782Z,100000.50
2023-05-15T09:42:25.861Z,99998.81
2023-05-15T09:44:53.559Z,99997.59
2023-05-15T09:47:21.594Z,99996.38
2023-05-15T09:49:51.006Z,99996.78
2023-05-15T09:52:19.855Z,99994.03
2023-05-15T09:54:50.329Z,99990.28
2023-05-15T09:57:23.312Z,99988.81
2023-05-15T09:59:51.502Z,99989.22
2023-05-15T10:02:28.298Z,99983.63
2023-05-15T10:04:59.429Z,99986.53
2023-05-15T10:07:31.592Z,99980.84
2023-05-15T10:10:00.264Z,99981.41
2023-05-15T10:12:29.740Z,99978.00
2023-05-15T10:14:59.649Z,99977.28
2023-05-15T10:17:29.127Z,99972.34
2023-05-15T10:20:00.704Z,99973.59
2023-05-15T10:22:31.651Z,99977.88
2023-05-15T10:25:10.268Z,99978.38
2023-05-15T10:27:40.086Z,99974.50
2023-05-15T10:30:10.892Z,99966.56
2023-05-15T10:32:41.880Z,99964.72
2023-05-15T10:35:13.584Z,99960.13
2023-05-15T10:37:41.586Z,99954.03
2023-05-15T10:40:11.429Z,99959.19
2023-05-15T10:42:39.502Z,99952.78
2023-05-15T10:45:10.507Z,99948.44
2023-05-15T10:47:39.426Z,99959.13
2023-05-15T10:50:08.589Z,99949.16
2023-05-15T10:52:39.266Z,99942.28
2023-05-15T10:55:14.750Z,99941.28
2023-05-15T10:57:42.877Z,99935.84
2023-05-15T11:00:27.141Z,99940.00
2023-05-15T11:02:57.205Z,99931.88
2023-05-15T11:05:25.826Z,99936.06
2023-05-15T11:08:28.593Z,99931.06
2023-05-15T11:10:56.467Z,99917.69
2023-05-15T11:13:24.304Z,99929.38
2023-05-15T11:15:52.334Z,99927.47
2023-05-15T11:18:21.714Z,99928.19
2023-05-15T11:21:09.737Z,99922.25
2023-05-15T11:23:43.007Z,99920.84
2023-05-15T11:26:10.871Z,99908.81
2023-05-15T11:28:47.107Z,99901.81
2023-05-15T11:31:15.973Z,99907.09
2023-05-15T11:33:43.933Z,99903.34
2023-05-15T11:36:15.821Z,99903.53
2023-05-15T11:38:44.961Z,99906.28
2023-05-15T11:41:21.838Z,99898.75
2023-05-15T11:43:51.292Z,99899.16
2023-05-15T11:46:19.241Z,99910.22
2023-05-15T11:48:48.682Z,99907.38
2023-05-15T11:51:19.452Z,99909.84
2023-05-15T11:53:50.934Z,99906.94
2023-05-15T11:56:19.757Z,99906.88
2023-05-15T11:58:49.815Z,99901.50
2023-05-15T12:01:17.849Z,99913.59
2023-05-15T12:03:48.655Z,99903.00
2023-05-15T12:06:17.225Z,99904.63
2023-05-15T12:08:45.999Z,99896.75
2023-05-15T12:11:15.576Z,99904.47
2023-05-15T12:13:43.330Z,99905.34
2023-05-15T12:16:11.351Z,99903.34
2023-05-15T12:18:39.361Z,99903.28
2023-05-15T12:21:07.266Z,99908.13
2023-05-15T12:23:34.970Z,99898.06
2023-05-15T12:26:04.526Z,99898.53
2023-05-15T12:28:36.737Z,99909.22
2023-05-15T12:31:05.066Z,99904.81
2023-05-15T12:33:33.065Z,99892.41
2023-05-15T12:36:01.826Z,99904.69
2023-05-15T12:38:30.683Z,99898.44
2023-05-15T12:40:58.777Z,99897.09
2023-05-15T12:43:27.545Z,99894.28
2023-05-15T12:45:57.838Z,99889.81
2023-05-15T12:48:31.308Z,99881.41
2023-05-15T12:51:07.184Z,99883.72
2023-05-15T12:53:35.265Z,99875.66
2023-05-15T12:56:04.526Z,99871.84
2023-05-15T12:58:32.517Z,99863.19
2023-05-15T13:01:03.064Z,99869.94
2023-05-15T13:03:31.977Z,99880.28
2023-05-15T13:06:00.149Z,99865.09
2023-05-15T13:08:28.051Z,99861.44
2023-05-15T13:10:58.733Z,99853.13
2023-05-15T13:13:43.759Z,99853.50
2023-05-15T13:16:21.884Z,99847.72
2023-05-15T13:18:49.987Z,99857.66
2023-05-15T13:21:18.621Z,99854.81
2023-05-15T13:23:46.559Z,99850.66
2023-05-15T13:26:14.633Z,99850.75
2023-05-15T13:28:42.405Z,99851.69
2023-05-15T13:31:10.418Z,99841.13
2023-05-15T13:33:39.747Z,99843.63
2023-05-15T13:36:08.379Z,99850.34
2023-05-15T13:38:36.397Z,99844.88
2023-05-15T13:41:05.251Z,99845.28
2023-05-15T13:43:33.580Z,99852.50
2023-05-15T13:46:01.642Z,99857.75
2023-05-15T13:48:29.402Z,99839.88
2023-05-15T13:50:58.737Z,99847.72
2023-05-15T13:53:29.200Z,99850.44
2023-05-15T13:55:56.908Z,99845.16
2023-05-15T13:58:26.700Z,99852.03
2023-05-15T14:00:54.666Z,99844.41
2023-05-15T14:03:22.664Z,99838.66
2023-05-15T14:05:51.230Z,99834.16
2023-05-15T14:08:21.228Z,99825.56
2023-05-15T14:10:48.962Z,99829.09
2023-05-15T14:13:16.758Z,99822.94
2023-05-15T14:15:44.646Z,99821.41
2023-05-15T14:18:12.533Z,99824.50
2023-05-15T14:20:40.335Z,99828.06
2023-05-15T14:23:08.170Z,99825.44
2023-05-15T14:25:37.400Z,99831.38
2023-05-15T14:28:05.249Z,99831.38
2023-05-15T14:30:33.037Z,99824.56
2023-05-15T14:33:01.300Z,99824.28
2023-05-15T14:35:29.108Z,99819.66
2023-05-15T14:37:57.777Z,99830.34
2023-05-15T14:40:25.902Z,99830.69
2023-05-15T14:42:55.239Z,99832.13
2023-05-15T14:45:23.317Z,99825.59
2023-05-15T14:47:51.085Z,99827.94
2023-05-15T14:50:19.154Z,99823.16
2023-05-15T14:52:46.972Z,99832.16
2023-05-15T14:55:15.033Z,99829.19
2023-05-15T14:57:42.739Z,99829.28
2023-05-15T15:00:13.634Z,99834.50
2023-05-15T15:02:41.598Z,99837.69
2023-05-15T15:05:10.710Z,99839.47
2023-05-15T15:07:59.956Z,99841.63
2023-05-15T15:10:28.095Z,99841.03
2023-05-15T15:12:55.896Z,99842.28
2023-05-15T15:15:25.704Z,99848.78
2023-05-15T15:17:53.648Z,99852.31
2023-05-15T15:20:23.005Z,99852.91
2023-05-15T15:22:51.028Z,99861.09
2023-05-15T15:25:19.426Z,99852.63
2023-05-15T15:27:48.033Z,99848.06
2023-05-15T15:30:17.130Z,99863.28
2023-05-15T15:32:46.480Z,99872.09
2023-05-15T15:35:14.901Z,99888.00
2023-05-15T15:37:42.642Z,99882.84
2023-05-15T15:40:12.037Z,99875.75
2023-05-15T15:42:40.558Z,99881.81
2023-05-15T15:45:09.212Z,99892.47
2023-05-15T15:47:37.103Z,99890.56
2023-05-15T15:50:07.114Z,99878.84
2023-05-15T15:52:34.924Z,99880.28
2023-05-15T15:55:02.661Z,99877.75
2023-05-15T15:57:31.337Z,99882.28
2023-05-15T15:59:59.173Z,99888.91
2023-05-15T16:02:28.558Z,99895.34
2023-05-15T16:04:56.377Z,99893.59
2023-05-15T16:07:25.623Z,99895.59
2023-05-15T16:10:04.234Z,99890.47
2023-05-15T16:12:40.660Z,99900.25
2023-05-15T16:15:21.786Z,99898.47
2023-05-15T16:17:52.704Z,99904.50
2023-05-15T16:20:21.138Z,99906.69
2023-05-15T16:22:50.807Z,99909.28
2023-05-15T16:25:18.586Z,99913.31
2023-05-15T16:27:46.346Z,99909.06
2023-05-15T16:30:15.132Z,99912.53
2023-05-15T16:32:43.540Z,99915.97
2023-05-15T16:35:12.065Z,99916.19
2023-05-15T16:37:40.032Z,99906.41
2023-05-15T16:40:10.342Z,99917.19
2023-05-15T16:42:38.802Z,99925.22
2023-05-15T16:45:08.166Z,99927.47
2023-05-15T16:47:39.193Z,99929.50
2023-05-15T16:50:07.941Z,99935.56
2023-05-15T16:52:35.950Z,99936.97
2023-05-15T16:55:04.168Z,99938.19
2023-05-15T16:57:33.530Z,99942.28
2023-05-15T17:00:01.243Z,99936.59
2023-05-15T17:02:29.004Z,99935.91
2023-05-15T17:04:56.764Z,99940.84
2023-05-15T17:07:24.511Z,99939.53
2023-05-15T17:09:52.350Z,99940.13
2023-05-15T17:12:20.110Z,99932.84
2023-05-15T17:14:49.243Z,99936.59
2023-05-15T17:17:17.108Z,99941.13
2023-05-15T17:19:44.927Z,99947.38
2023-05-15T17:22:12.733Z,99936.78
2023-05-15T17:24:51.010Z,99943.47
2023-05-15T17:27:20.571Z,99936.66
2023-05-15T17:29:50.257Z,99938.97
2023-05-15T17:32:18.830Z,99942.34
2023-05-15T17:34:47.346Z,99943.38
2023-05-15T17:37:15.389Z,99954.34
2023-05-15T17:39:43.346Z,99947.94
2023-05-15T17:42:11.212Z,99957.69
2023-05-15T17:44:39.273Z,99960.19
2023-05-15T17:47:10.148Z,99962.44
2023-05-15T17:49:38.642Z,99962.44
2023-05-15T17:52:06.771Z,99961.59
2023-05-15T17:54:34.700Z,99965.03
2023-05-15T17:57:02.605Z,99971.66
2023-05-15T17:59:31.023Z,99977.59
2023-05-15T18:01:59.137Z,99972.09
2023-05-15T18:04:28.491Z,99976.38
2023-05-15T18:06:56.321Z,99976.53
2023-05-15T18:09:24.823Z,99979.63
2023-05-15T18:11:52.883Z,99984.06
2023-05-15T18:14:20.769Z,99988.16
2023-05-15T18:16:48.563Z,99988.06
2023-05-15T18:19:16.569Z,99987.75
2023-05-15T18:21:45.972Z,99993.22
2023-05-15T18:24:13.844Z,99991.97
2023-05-15T18:26:41.726Z,99997.28
2023-05-15T18:29:09.762Z,99998.09
2023-05-15T18:31:37.960Z,99999.31
2023-05-15T18:34:05.936Z,100001.50
2023-05-15T18:36:33.935Z,100001.50
2023-05-15T18:39:03.555Z,100001.16
2023-05-15T18:41:31.370Z,99998.84
2023-05-15T18:43:59.093Z,100007.66
2023-05-15T18:46:28.384Z,100011.72
2023-05-15T18:48:56.376Z,100030.91
2023-05-15T18:51:24.460Z,100031.75
2023-05-15T18:53:52.367Z,100047.63
2023-05-15T18:56:22.282Z,100055.19
2023-05-15T18:58:50.064Z,100053.44
2023-05-15T19:01:18.126Z,100065.44
2023-05-15T19:03:46.040Z,100068.84
2023-05-15T19:06:19.666Z,100086.06
2023-05-15T19:08:48.150Z,100078.34
2023-05-15T19:11:15.930Z,100084.72
2023-05-15T19:13:45.102Z,100088.78
2023-05-15T19:16:12.945Z,100093.84
2023-05-15T19:18:40.837Z,100102.91
2023-05-15T19:21:08.654Z,100105.25
2023-05-15T19:23:36.346Z,100108.75
2023-05-15T19:26:04.134Z,100101.38
2023-05-15T19:28:32.480Z,100110.09
2023-05-15T19:31:01.619Z,100107.75
2023-05-15T19:33:29.533Z,100109.91
2023-05-15T19:35:57.363Z,100109.09
2023-05-15T19:38:25.569Z,100117.13
2023-05-15T19:40:53.684Z,100110.91
2023-05-15T19:43:21.466Z,100107.03
2023-05-15T19:45:49.554Z,100113.56
2023-05-15T19:48:18.849Z,100112.75
2023-05-15T19:50:46.998Z,100121.97
2023-05-15T19:53:14.764Z,100115.41
2023-05-15T19:55:42.660Z,100109.34
2023-05-15T19:58:10.621Z,100108.63
2023-05-15T20:00:38.415Z,100104.94
2023-05-15T20:03:06.351Z,100104.25
2023-05-15T20:05:35.511Z,100097.69
2023-05-15T20:08:03.298Z,100097.22
2023-05-15T20:10:30.992Z,100104.81
2023-05-15T20:12:58.886Z,100106.16
2023-05-15T20:15:29.527Z,100102.97
2023-05-15T20:17:57.451Z,100102.97
2023-05-15T20:20:25.562Z,100094.25
2023-05-15T20:22:54.863Z,100097.44
2023-05-15T20:25:24.249Z,100098.09
2023-05-15T20:27:56.360Z,100108.28
2023-05-15T20:30:24.808Z,100100.38
2023-05-15T20:32:52.767Z,100100.06
2023-05-15T20:35:20.965Z,100114.72
2023-05-15T20:37:48.929Z,100116.34
2023-05-15T20:40:22.846Z,100119.19
2023-05-15T20:42:50.774Z,100120.69
2023-05-15T20:45:18.687Z,100123.84
2023-05-15T20:47:47.105Z,100120.97
2023-05-15T20:50:15.010Z,100116.94
2023-05-15T20:52:42.971Z,100114.75
2023-05-15T20:55:16.346Z,100117.59
2023-05-15T20:57:46.401Z,100113.53
2023-05-15T21:00:15.650Z,100118.22
2023-05-15T21:02:43.998Z,100115.16
2023-05-15T21:05:12.487Z,100118.19
2023-05-15T21:07:40.463Z,100122.69
2023-05-15T21:10:09.299Z,100123.56
2023-05-15T21:12:37.063Z,100129.06
2023-05-15T21:15:07.382Z,100134.28
2023-05-15T21:17:35.203Z,100132.44
2023-05-15T21:20:04.352Z,100136.97
2023-05-15T21:22:32.174Z,100136.09
2023-05-15T21:24:59.940Z,100132.75
2023-05-15T21:27:27.904Z,100139.97
2023-05-15T21:29:55.712Z,100140.44
2023-05-15T21:32:24.823Z,100140.44
2023-05-15T21:34:52.686Z,100144.13
2023-05-15T21:37:20.482Z,100141.59
2023-05-15T21:39:48.281Z,100143.44
2023-05-15T21:42:16.274Z,100146.44
2023-05-15T21:44:44.299Z,100141.22
2023-05-15T21:47:12.123Z,100139.88
2023-05-15T21:49:41.273Z,100138.16
2023-05-15T21:52:09.223Z,100143.53
2023-05-15T21:54:36.985Z,100143.88
2023-05-15T21:57:05.133Z,100141.50
2023-05-15T21:59:32.993Z,100139.97
2023-05-15T22:02:00.987Z,100137.78
2023-05-15T22:04:30.375Z,100139.78
2023-05-15T22:06:59.518Z,100147.44
2023-05-15T22:09:27.307Z,100151.72
2023-05-15T22:11:55.085Z,100155.22
2023-05-15T22:14:22.924Z,100155.13
2023-05-15T22:16:50.997Z,100160.13
2023-05-15T22:19:32.034Z,100163.53
2023-05-15T22:22:03.450Z,100165.66
2023-05-15T22:24:31.243Z,100174.03
2023-05-15T22:26:58.986Z,100169.78
2023-05-15T22:29:26.807Z,100169.09
2023-05-15T22:31:54.666Z,100178.16
2023-05-15T22:34:22.616Z,100169.56
2023-05-15T22:36:50.385Z,100174.09
2023-05-15T22:39:19.564Z,100177.06
2023-05-15T22:41:47.560Z,100171.34
2023-05-15T22:44:15.529Z,100179.53
2023-05-15T22:46:44.042Z,100176.00
2023-05-15T22:49:25.306Z,100182.50
2023-05-15T22:51:53.249Z,100182.81
2023-05-15T22:54:23.126Z,100182.13
2023-05-15T22:56:52.669Z,100186.63
2023-05-15T22:59:20.868Z,100183.09
2023-05-15T23:01:49.229Z,100186.63
2023-05-15T23:04:17.952Z,100184.09
2023-05-15T23:06:46.092Z,100185.25
2023-05-15T23:09:14.100Z,100177.38
2023-05-15T23:11:43.268Z,100174.84
2023-05-15T23:14:12.140Z,100172.31
2023-05-15T23:16:40.113Z,100178.66
2023-05-15T23:19:07.884Z,100173.44
2023-05-15T23:21:36.151Z,100168.94
2023-05-15T23:24:03.982Z,100172.91
2023-05-15T23:26:31.658Z,100172.91
2023-05-15T23:29:00.891Z,100173.75
2023-05-15T23:31:29.022Z,100172.22
2023-05-15T23:33:56.795Z,100183.06
2023-05-15T23:36:24.617Z,100173.50
2023-05-15T23:38:52.473Z,100178.31
2023-05-15T23:41:21.993Z,100178.31
2023-05-15T23:43:50.713Z,100182.13
2023-05-15T23:46:19.853Z,100171.19
2023-05-15T23:48:47.621Z,100177.84
2023-05-15T23:51:15.757Z,100178.25
2023-05-15T23:53:43.563Z,100175.91
2023-05-15T23:56:11.282Z,100177.19
2023-05-15T23:58:38.991Z,100175.63
